sensor_id;sensor_type;location;lat;lon;timestamp;pressure;altitude;pressure_sealevel;temperature;humidity
15382;BME280;7789;51.364;12.358;2023-05-07T00:05:01;100770.69;;;11.68;100.00
15382;BME280;7789;51.364;12.358;2023-05-07T00:10:19;100753.44;;;11.54;100.00
15382;BME280;7789;51.364;12.358;2023-05-07T00:15:27;100746.78;;;11.50;100.00
15382;BME280;7789;51.364;12.358;2023-05-07T00:20:33;100740.22;;;11.56;100.00
15382;BME280;7789;51.364;12.358;2023-05-07T00:25:47;100750.47;;;11.48;100.00
15382;BME280;7789;51.364;12.358;2023-05-07T00:30:58;100751.06;;;11.51;100.00
15382;BME280;7789;51.364;12.358;2023-05-07T00:36:07;100757.50;;;11.58;100.00
15382;BME280;7789;51.364;12.358;2023-05-07T00:41:17;100747.97;;;11.57;100.00
15382;BME280;7789;51.364;12.358;2023-05-07T00:46:25;100749.88;;;11.55;100.00
15382;BME280;7789;51.364;12.358;2023-05-07T00:51:30;100752.72;;;11.52;100.00
15382;BME280;7789;51.364;12.358;2023-05-07T00:56:38;100761.75;;;11.48;100.00
15382;BME280;7789;51.364;12.358;2023-05-07T01:01:55;100765.31;;;11.47;100.00
15382;BME280;7789;51.364;12.358;2023-05-07T01:07:02;100778.78;;;11.54;100.00
15382;BME280;7789;51.364;12.358;2023-05-07T01:12:11;100768.19;;;11.55;100.00
15382;BME280;7789;51.364;12.358;2023-05-07T01:17:18;100761.53;;;11.51;100.00
15382;BME280;7789;51.364;12.358;2023-05-07T01:22:29;100750.97;;;11.42;100.00
15382;BME280;7789;51.364;12.358;2023-05-07T01:27:35;100745.84;;;11.40;100.00
15382;BME280;7789;51.364;12.358;2023-05-07T01:32:44;100763.94;;;11.32;100.00
15382;BME280;7789;51.364;12.358;2023-05-07T01:37:56;100764.06;;;11.42;100.00
15382;BME280;7789;51.364;12.358;2023-05-07T01:43:01;100764.06;;;11.42;100.00
15382;BME280;7789;51.364;12.358;2023-05-07T01:48:12;100757.50;;;11.36;100.00
15382;BME280;7789;51.364;12.358;2023-05-07T01:53:21;100763.69;;;11.35;100.00
15382;BME280;7789;51.364;12.358;2023-05-07T01:58:27;100771.56;;;11.35;100.00
15382;BME280;7789;51.364;12.358;2023-05-07T02:03:33;100774.28;;;11.34;100.00
15382;BME280;7789;51.364;12.358;2023-05-07T02:08:42;100782.84;;;11.36;100.00
15382;BME280;7789;51.364;12.358;2023-05-07T02:13:54;100770.94;;;11.43;100.00
15382;BME280;7789;51.364;12.358;2023-05-07T02:18:58;100765.38;;;11.36;100.00
15382;BME280;7789;51.364;12.358;2023-05-07T02:24:08;100764.06;;;11.31;100.00
15382;BME280;7789;51.364;12.358;2023-05-07T02:29:15;100764.16;;;11.29;100.00
15382;BME280;7789;51.364;12.358;2023-05-07T02:34:20;100765.59;;;11.33;100.00
15382;BME280;7789;51.364;12.358;2023-05-07T02:39:27;100772.97;;;11.28;100.00
15382;BME280;7789;51.364;12.358;2023-05-07T02:44:32;100784.28;;;11.29;100.00
15382;BME280;7789;51.364;12.358;2023-05-07T02:49:40;100774.06;;;11.26;100.00
15382;BME280;7789;51.364;12.358;2023-05-07T02:54:47;100776.28;;;11.41;100.00
15382;BME280;7789;51.364;12.358;2023-05-07T02:59:58;100778.44;;;11.36;100.00
15382;BME280;7789;51.364;12.358;2023-05-07T03:05:08;100777.50;;;11.37;100.00
15382;BME280;7789;51.364;12.358;2023-05-07T03:10:16;100770.09;;;11.42;100.00
15382;BME280;7789;51.364;12.358;2023-05-07T03:15:21;100765.13;;;11.39;100.00
15382;BME280;7789;51.364;12.358;2023-05-07T03:20:26;100773.69;;;11.30;100.00
15382;BME280;7789;51.364;12.358;2023-05-07T03:25:35;100771.19;;;11.29;100.00
15382;BME280;7789;51.364;12.358;2023-05-07T03:30:40;100774.88;;;11.26;100.00
15382;BME280;7789;51.364;12.358;2023-05-07T03:35:49;100784.28;;;11.18;100.00
15382;BME280;7789;51.364;12.358;2023-05-07T03:40:56;100777.03;;;11.21;100.00
15382;BME280;7789;51.364;12.358;2023-05-07T03:46:05;100775.81;;;11.25;100.00
15382;BME280;7789;51.364;12.358;2023-05-07T03:51:10;100794.75;;;11.29;100.00
15382;BME280;7789;51.364;12.358;2023-05-07T03:56:18;100799.25;;;11.38;100.00
15382;BME280;7789;51.364;12.358;2023-05-07T04:01:25;100804.84;;;11.44;100.00
15382;BME280;7789;51.364;12.358;2023-05-07T04:06:30;100816.50;;;11.40;100.00
15382;BME280;7789;51.364;12.358;2023-05-07T04:11:42;100811.03;;;11.43;100.00
15382;BME280;7789;51.364;12.358;2023-05-07T04:16:46;100812.00;;;11.42;100.00
15382;BME280;7789;51.364;12.358;2023-05-07T04:21:53;100814.59;;;11.42;100.00
15382;BME280;7789;51.364;12.358;2023-05-07T04:27:00;100805.81;;;11.43;100.00
15382;BME280;7789;51.364;12.358;2023-05-07T04:32:10;100803.66;;;11.48;100.00
15382;BME280;7789;51.364;12.358;2023-05-07T04:37:18;100820.66;;;11.54;100.00
15382;BME280;7789;51.364;12.358;2023-05-07T04:42:25;100823.66;;;11.49;100.00
15382;BME280;7789;51.364;12.358;2023-05-07T04:47:30;100825.31;;;11.50;100.00
15382;BME280;7789;51.364;12.358;2023-05-07T04:52:38;100826.28;;;11.49;100.00
15382;BME280;7789;51.364;12.358;2023-05-07T04:57:54;100834.72;;;11.53;100.00
15382;BME280;7789;51.364;12.358;2023-05-07T05:03:04;100847.81;;;11.53;100.00
15382;BME280;7789;51.364;12.358;2023-05-07T05:08:09;100844.97;;;11.45;100.00
15382;BME280;7789;51.364;12.358;2023-05-07T05:13:17;100842.34;;;11.45;100.00
15382;BME280;7789;51.364;12.358;2023-05-07T05:18:22;100848.78;;;11.41;100.00
15382;BME280;7789;51.364;12.358;2023-05-07T05:23:27;100847.56;;;11.45;100.00
15382;BME280;7789;51.364;12.358;2023-05-07T05:28:36;100840.69;;;11.44;100.00
15382;BME280;7789;51.364;12.358;2023-05-07T05:33:41;100844.25;;;11.43;100.00
15382;BME280;7789;51.364;12.358;2023-05-07T05:38:52;100860.66;;;11.45;100.00
15382;BME280;7789;51.364;12.358;2023-05-07T05:44:05;100853.16;;;11.40;100.00
15382;BME280;7789;51.364;12.358;2023-05-07T05:49:12;100875.78;;;11.41;100.00
15382;BME280;7789;51.364;12.358;2023-05-07T05:54:18;100872.66;;;11.47;100.00
15382;BME280;7789;51.364;12.358;2023-05-07T05:59:33;100880.53;;;11.47;100.00
15382;BME280;7789;51.364;12.358;2023-05-07T06:04:40;100893.50;;;11.49;100.00
15382;BME280;7789;51.364;12.358;2023-05-07T06:09:48;100877.44;;;11.53;100.00
15382;BME280;7789;51.364;12.358;2023-05-07T06:14:55;100882.94;;;11.61;100.00
15382;BME280;7789;51.364;12.358;2023-05-07T06:20:00;100881.88;;;11.64;100.00
15382;BME280;7789;51.364;12.358;2023-05-07T06:25:05;100881.28;;;11.60;100.00
15382;BME280;7789;51.364;12.358;2023-05-07T06:30:12;100883.91;;;11.60;100.00
15382;BME280;7789;51.364;12.358;2023-05-07T06:35:17;100878.53;;;11.73;100.00
15382;BME280;7789;51.364;12.358;2023-05-07T06:40:21;100890.09;;;11.70;100.00
15382;BME280;7789;51.364;12.358;2023-05-07T06:45:30;100900.22;;;11.75;100.00
15382;BME280;7789;51.364;12.358;2023-05-07T06:50:35;100912.22;;;11.77;100.00
15382;BME280;7789;51.364;12.358;2023-05-07T06:55:41;100913.28;;;11.86;100.00
15382;BME280;7789;51.364;12.358;2023-05-07T07:00:50;100916.50;;;11.89;100.00
15382;BME280;7789;51.364;12.358;2023-05-07T07:06:00;100921.16;;;11.97;100.00
15382;BME280;7789;51.364;12.358;2023-05-07T07:11:13;100918.66;;;11.95;100.00
15382;BME280;7789;51.364;12.358;2023-05-07T07:16:22;100922.22;;;12.05;100.00
15382;BME280;7789;51.364;12.358;2023-05-07T07:21:31;100911.75;;;11.94;100.00
15382;BME280;7789;51.364;12.358;2023-05-07T07:26:39;100911.94;;;12.13;100.00
15382;BME280;7789;51.364;12.358;2023-05-07T07:32:02;100902.13;;;12.37;100.00
15382;BME280;7789;51.364;12.358;2023-05-07T07:37:09;100911.06;;;12.35;100.00
15382;BME280;7789;51.364;12.358;2023-05-07T07:42:15;100925.84;;;12.36;100.00
15382;BME280;7789;51.364;12.358;2023-05-07T07:47:25;100927.25;;;12.40;100.00
15382;BME280;7789;51.364;12.358;2023-05-07T07:52:33;100916.13;;;12.58;100.00
15382;BME280;7789;51.364;12.358;2023-05-07T07:57:39;100925.84;;;12.67;99.65
15382;BME280;7789;51.364;12.358;2023-05-07T08:02:49;100938.97;;;12.67;99.37
15382;BME280;7789;51.364;12.358;2023-05-07T08:07:53;100937.44;;;12.65;98.57
15382;BME280;7789;51.364;12.358;2023-05-07T08:13:01;100931.63;;;12.61;97.53
15382;BME280;7789;51.364;12.358;2023-05-07T08:18:09;100934.03;;;12.53;96.69
15382;BME280;7789;51.364;12.358;2023-05-07T08:23:15;100950.91;;;12.71;96.27
15382;BME280;7789;51.364;12.358;2023-05-07T08:28:21;100945.25;;;12.76;95.06
15382;BME280;7789;51.364;12.358;2023-05-07T08:33:31;100958.06;;;12.69;94.41
15382;BME280;7789;51.364;12.358;2023-05-07T08:38:39;100955.56;;;12.68;93.75
15382;BME280;7789;51.364;12.358;2023-05-07T08:43:48;100965.34;;;12.66;92.72
15382;BME280;7789;51.364;12.358;2023-05-07T08:48:56;100966.56;;;12.62;92.69
15382;BME280;7789;51.364;12.358;2023-05-07T08:54:09;100968.56;;;12.69;93.24
15382;BME280;7789;51.364;12.358;2023-05-07T08:59:19;100970.66;;;12.86;92.20
15382;BME280;7789;51.364;12.358;2023-05-07T09:04:33;100964.09;;;12.81;91.31
15382;BME280;7789;51.364;12.358;2023-05-07T09:09:38;100973.63;;;12.93;91.52
15382;BME280;7789;51.364;12.358;2023-05-07T09:14:53;100979.22;;;12.88;91.34
15382;BME280;7789;51.364;12.358;2023-05-07T09:20:04;100974.69;;;12.90;90.73
15382;BME280;7789;51.364;12.358;2023-05-07T09:25:13;100977.69;;;12.97;90.84
15382;BME280;7789;51.364;12.358;2023-05-07T09:30:20;100988.00;;;13.09;90.09
15382;BME280;7789;51.364;12.358;2023-05-07T09:35:31;100968.34;;;13.03;89.77
15382;BME280;7789;51.364;12.358;2023-05-07T09:40:36;100975.69;;;13.09;90.02
15382;BME280;7789;51.364;12.358;2023-05-07T09:45:45;100990.03;;;13.05;90.35
15382;BME280;7789;51.364;12.358;2023-05-07T09:51:02;100988.63;;;13.01;89.28
15382;BME280;7789;51.364;12.358;2023-05-07T09:56:13;100977.09;;;12.93;89.86
15382;BME280;7789;51.364;12.358;2023-05-07T10:01:27;100981.13;;;12.97;89.48
15382;BME280;7789;51.364;12.358;2023-05-07T10:07:10;100976.47;;;13.00;89.82
15382;BME280;7789;51.364;12.358;2023-05-07T10:12:21;100976.72;;;13.18;89.74
15382;BME280;7789;51.364;12.358;2023-05-07T10:17:27;100977.69;;;13.17;89.71
15382;BME280;7789;51.364;12.358;2023-05-07T10:22:47;100990.25;;;13.34;88.23
15382;BME280;7789;51.364;12.358;2023-05-07T10:27:57;100986.44;;;13.38;88.74
15382;BME280;7789;51.364;12.358;2023-05-07T10:33:07;100984.50;;;13.40;87.80
15382;BME280;7789;51.364;12.358;2023-05-07T10:38:17;100986.22;;;13.50;88.14
15382;BME280;7789;51.364;12.358;2023-05-07T10:43:38;100994.09;;;13.50;86.71
15382;BME280;7789;51.364;12.358;2023-05-07T10:49:10;100999.41;;;13.60;86.51
15382;BME280;7789;51.364;12.358;2023-05-07T10:54:23;100996.84;;;13.49;86.55
15382;BME280;7789;51.364;12.358;2023-05-07T10:59:37;100996.09;;;13.58;86.07
15382;BME280;7789;51.364;12.358;2023-05-07T11:05:20;101002.06;;;13.60;86.46
15382;BME280;7789;51.364;12.358;2023-05-07T11:10:47;100992.81;;;13.65;86.37
15382;BME280;7789;51.364;12.358;2023-05-07T11:15:54;100992.59;;;13.78;86.72
15382;BME280;7789;51.364;12.358;2023-05-07T11:21:03;100989.97;;;13.78;86.15
15382;BME280;7789;51.364;12.358;2023-05-07T11:26:11;100995.03;;;13.90;85.26
15382;BME280;7789;51.364;12.358;2023-05-07T11:31:21;101006.38;;;13.91;84.59
15382;BME280;7789;51.364;12.358;2023-05-07T11:36:42;100989.94;;;13.98;83.34
15382;BME280;7789;51.364;12.358;2023-05-07T11:41:50;100995.25;;;14.08;82.51
15382;BME280;7789;51.364;12.358;2023-05-07T11:46:58;100985.81;;;14.35;82.85
15382;BME280;7789;51.364;12.358;2023-05-07T11:52:05;100995.03;;;14.20;81.27
15382;BME280;7789;51.364;12.358;2023-05-07T11:57:16;101000.44;;;14.19;80.83
15382;BME280;7789;51.364;12.358;2023-05-07T12:02:20;100991.06;;;14.26;80.45
15382;BME280;7789;51.364;12.358;2023-05-07T12:07:36;101001.41;;;14.18;80.81
15382;BME280;7789;51.364;12.358;2023-05-07T12:12:54;100984.00;;;14.36;80.82
15382;BME280;7789;51.364;12.358;2023-05-07T12:18:05;100993.72;;;14.35;79.24
15382;BME280;7789;51.364;12.358;2023-05-07T12:23:11;100991.25;;;14.53;78.46
15382;BME280;7789;51.364;12.358;2023-05-07T12:28:20;100986.06;;;14.81;77.42
15382;BME280;7789;51.364;12.358;2023-05-07T12:33:29;100970.41;;;14.89;76.57
15382;BME280;7789;51.364;12.358;2023-05-07T12:38:38;100968.44;;;14.82;76.14
15382;BME280;7789;51.364;12.358;2023-05-07T12:43:46;100970.38;;;14.70;76.90
15382;BME280;7789;51.364;12.358;2023-05-07T12:49:04;100983.44;;;14.81;75.54
15382;BME280;7789;51.364;12.358;2023-05-07T12:54:10;100987.72;;;15.01;74.83
15382;BME280;7789;51.364;12.358;2023-05-07T12:59:18;100980.94;;;15.08;73.68
15382;BME280;7789;51.364;12.358;2023-05-07T13:04:35;100971.63;;;15.23;72.51
15382;BME280;7789;51.364;12.358;2023-05-07T13:09:44;100976.63;;;15.35;70.62
15382;BME280;7789;51.364;12.358;2023-05-07T13:14:52;100987.31;;;15.43;71.18
15382;BME280;7789;51.364;12.358;2023-05-07T13:19:57;100977.88;;;15.50;71.67
15382;BME280;7789;51.364;12.358;2023-05-07T13:25:06;100960.41;;;15.49;70.68
15382;BME280;7789;51.364;12.358;2023-05-07T13:30:30;100962.88;;;15.60;70.89
15382;BME280;7789;51.364;12.358;2023-05-07T13:35:45;100960.63;;;15.65;69.95
15382;BME280;7789;51.364;12.358;2023-05-07T13:40:50;100971.72;;;15.69;69.29
15382;BME280;7789;51.364;12.358;2023-05-07T13:45:59;100958.16;;;15.54;70.94
15382;BME280;7789;51.364;12.358;2023-05-07T13:51:07;100961.72;;;15.72;71.03
15382;BME280;7789;51.364;12.358;2023-05-07T13:56:16;100954.69;;;15.63;69.96
15382;BME280;7789;51.364;12.358;2023-05-07T14:01:25;100953.41;;;15.67;70.51
15382;BME280;7789;51.364;12.358;2023-05-07T14:06:34;100959.38;;;15.69;69.78
15382;BME280;7789;51.364;12.358;2023-05-07T14:11:47;100951.16;;;15.72;69.93
15382;BME280;7789;51.364;12.358;2023-05-07T14:17:06;100974.38;;;15.69;69.42
15382;BME280;7789;51.364;12.358;2023-05-07T14:22:18;100945.09;;;15.62;68.90
15382;BME280;7789;51.364;12.358;2023-05-07T14:27:25;100938.28;;;15.69;69.88
15382;BME280;7789;51.364;12.358;2023-05-07T14:32:32;100933.59;;;15.63;68.16
15382;BME280;7789;51.364;12.358;2023-05-07T14:37:41;100938.81;;;15.73;68.64
15382;BME280;7789;51.364;12.358;2023-05-07T14:42:46;100926.63;;;15.72;69.31
15382;BME280;7789;51.364;12.358;2023-05-07T14:47:55;100939.13;;;15.70;68.15
15382;BME280;7789;51.364;12.358;2023-05-07T14:52:59;100944.09;;;15.73;68.27
15382;BME280;7789;51.364;12.358;2023-05-07T14:58:05;100935.03;;;15.85;68.15
15382;BME280;7789;51.364;12.358;2023-05-07T15:03:14;100971.25;;;15.92;67.58
15382;BME280;7789;51.364;12.358;2023-05-07T15:08:21;100954.19;;;15.87;68.40
15382;BME280;7789;51.364;12.358;2023-05-07T15:13:27;100955.44;;;15.83;68.20
15382;BME280;7789;51.364;12.358;2023-05-07T15:18:37;100947.78;;;15.89;67.67
15382;BME280;7789;51.364;12.358;2023-05-07T15:23:45;100954.78;;;15.71;67.39
15382;BME280;7789;51.364;12.358;2023-05-07T15:28:51;100965.78;;;15.57;68.07
15382;BME280;7789;51.364;12.358;2023-05-07T15:34:01;100956.78;;;15.50;68.47
15382;BME280;7789;51.364;12.358;2023-05-07T15:39:08;100964.28;;;15.55;68.57
15382;BME280;7789;51.364;12.358;2023-05-07T15:44:23;100962.34;;;15.47;68.53
15382;BME280;7789;51.364;12.358;2023-05-07T15:49:36;100963.88;;;15.31;68.79
15382;BME280;7789;51.364;12.358;2023-05-07T15:54:46;100961.69;;;15.36;68.90
15382;BME280;7789;51.364;12.358;2023-05-07T15:59:53;100952.91;;;15.26;69.82
15382;BME280;7789;51.364;12.358;2023-05-07T16:04:59;100969.16;;;15.31;70.40
15382;BME280;7789;51.364;12.358;2023-05-07T16:10:07;100961.94;;;15.14;70.16
15382;BME280;7789;51.364;12.358;2023-05-07T16:15:24;100958.34;;;14.96;71.79
15382;BME280;7789;51.364;12.358;2023-05-07T16:20:37;100956.81;;;14.93;71.61
15382;BME280;7789;51.364;12.358;2023-05-07T16:25:44;100960.97;;;14.77;72.72
15382;BME280;7789;51.364;12.358;2023-05-07T16:30:50;100957.78;;;14.74;73.75
15382;BME280;7789;51.364;12.358;2023-05-07T16:35:57;100965.81;;;14.63;73.96
15382;BME280;7789;51.364;12.358;2023-05-07T16:41:10;100961.50;;;14.52;74.65
15382;BME280;7789;51.364;12.358;2023-05-07T16:46:22;100960.09;;;14.48;75.04
15382;BME280;7789;51.364;12.358;2023-05-07T16:51:28;100970.63;;;14.39;75.73
15382;BME280;7789;51.364;12.358;2023-05-07T16:56:50;100959.50;;;14.26;75.99
15382;BME280;7789;51.364;12.358;2023-05-07T17:02:00;100978.50;;;14.09;76.01
15382;BME280;7789;51.364;12.358;2023-05-07T17:07:14;100958.72;;;14.05;76.93
15382;BME280;7789;51.364;12.358;2023-05-07T17:12:25;100957.94;;;13.93;77.00
15382;BME280;7789;51.364;12.358;2023-05-07T17:17:39;100966.69;;;13.94;77.37
15382;BME280;7789;51.364;12.358;2023-05-07T17:22:48;100960.69;;;13.82;76.98
15382;BME280;7789;51.364;12.358;2023-05-07T17:27:59;100968.53;;;13.73;76.75
15382;BME280;7789;51.364;12.358;2023-05-07T17:33:06;100966.66;;;13.64;77.43
15382;BME280;7789;51.364;12.358;2023-05-07T17:38:25;100972.44;;;13.58;78.07
15382;BME280;7789;51.364;12.358;2023-05-07T17:43:32;100983.72;;;13.49;78.92
15382;BME280;7789;51.364;12.358;2023-05-07T17:48:44;100989.50;;;13.43;79.85
15382;BME280;7789;51.364;12.358;2023-05-07T17:53:52;100986.09;;;13.31;80.85
15382;BME280;7789;51.364;12.358;2023-05-07T17:58:57;100977.06;;;13.24;81.48
15382;BME280;7789;51.364;12.358;2023-05-07T18:04:08;100998.94;;;13.14;81.33
15382;BME280;7789;51.364;12.358;2023-05-07T18:09:19;100984.94;;;13.04;81.72
15382;BME280;7789;51.364;12.358;2023-05-07T18:14:26;100995.09;;;12.98;82.12
15382;BME280;7789;51.364;12.358;2023-05-07T18:19:33;101013.47;;;12.87;82.49
15382;BME280;7789;51.364;12.358;2023-05-07T18:24:43;101023.59;;;12.80;83.41
15382;BME280;7789;51.364;12.358;2023-05-07T18:29:49;101022.56;;;12.72;83.64
15382;BME280;7789;51.364;12.358;2023-05-07T18:34:57;101036.28;;;12.64;84.00
15382;BME280;7789;51.364;12.358;2023-05-07T18:40:06;101016.28;;;12.52;83.97
15382;BME280;7789;51.364;12.358;2023-05-07T18:45:12;101023.81;;;12.46;84.18
15382;BME280;7789;51.364;12.358;2023-05-07T18:50:19;101027.28;;;12.35;84.24
15382;BME280;7789;51.364;12.358;2023-05-07T18:55:29;101028.59;;;12.30;84.57
15382;BME280;7789;51.364;12.358;2023-05-07T19:00:35;101029.53;;;12.18;84.17
15382;BME280;7789;51.364;12.358;2023-05-07T19:05:42;101053.47;;;12.13;84.75
15382;BME280;7789;51.364;12.358;2023-05-07T19:10:54;101055.03;;;12.05;85.31
15382;BME280;7789;51.364;12.358;2023-05-07T19:16:04;101057.41;;;11.97;86.57
15382;BME280;7789;51.364;12.358;2023-05-07T19:21:15;101078.25;;;11.87;86.58
15382;BME280;7789;51.364;12.358;2023-05-07T19:26:22;101075.59;;;11.76;86.74
15382;BME280;7789;51.364;12.358;2023-05-07T19:31:28;101085.81;;;11.68;87.38
15382;BME280;7789;51.364;12.358;2023-05-07T19:36:37;101094.34;;;11.59;88.12
15382;BME280;7789;51.364;12.358;2023-05-07T19:42:01;101095.97;;;11.49;88.52
15382;BME280;7789;51.364;12.358;2023-05-07T19:47:10;101082.09;;;11.36;89.11
15382;BME280;7789;51.364;12.358;2023-05-07T19:52:15;101091.84;;;11.34;87.83
15382;BME280;7789;51.364;12.358;2023-05-07T19:57:23;101100.50;;;11.24;88.86
15382;BME280;7789;51.364;12.358;2023-05-07T20:02:30;101087.09;;;11.16;88.28
15382;BME280;7789;51.364;12.358;2023-05-07T20:07:38;101096.13;;;11.12;88.45
15382;BME280;7789;51.364;12.358;2023-05-07T20:12:48;101102.72;;;11.05;88.25
15382;BME280;7789;51.364;12.358;2023-05-07T20:17:56;101104.03;;;11.00;88.52
15382;BME280;7789;51.364;12.358;2023-05-07T20:23:04;101111.34;;;10.95;89.53
15382;BME280;7789;51.364;12.358;2023-05-07T20:28:12;101105.84;;;10.87;88.83
15382;BME280;7789;51.364;12.358;2023-05-07T20:33:18;101102.50;;;10.85;88.96
15382;BME280;7789;51.364;12.358;2023-05-07T20:38:23;101128.88;;;10.82;89.92
15382;BME280;7789;51.364;12.358;2023-05-07T20:43:37;101125.75;;;10.77;90.17
15382;BME280;7789;51.364;12.358;2023-05-07T20:48:41;101114.88;;;10.70;89.37
15382;BME280;7789;51.364;12.358;2023-05-07T20:54:02;101112.59;;;10.66;89.74
15382;BME280;7789;51.364;12.358;2023-05-07T20:59:18;101124.31;;;10.60;90.74
15382;BME280;7789;51.364;12.358;2023-05-07T21:04:23;101120.34;;;10.55;90.83
15382;BME280;7789;51.364;12.358;2023-05-07T21:09:27;101117.22;;;10.50;91.19
15382;BME280;7789;51.364;12.358;2023-05-07T21:14:33;101133.31;;;10.44;91.30
15382;BME280;7789;51.364;12.358;2023-05-07T21:19:38;101139.69;;;10.40;91.73
15382;BME280;7789;51.364;12.358;2023-05-07T21:24:44;101145.16;;;10.37;92.12
15382;BME280;7789;51.364;12.358;2023-05-07T21:29:52;101153.19;;;10.34;92.87
15382;BME280;7789;51.364;12.358;2023-05-07T21:35:00;101147.44;;;10.29;92.81
15382;BME280;7789;51.364;12.358;2023-05-07T21:40:09;101138.03;;;10.26;93.10
15382;BME280;7789;51.364;12.358;2023-05-07T21:45:17;101139.94;;;10.24;93.18
15382;BME280;7789;51.364;12.358;2023-05-07T21:50:22;101159.16;;;10.23;94.18
15382;BME280;7789;51.364;12.358;2023-05-07T21:55:28;101146.28;;;10.20;95.00
15382;BME280;7789;51.364;12.358;2023-05-07T22:00:34;101157.06;;;10.16;94.66
15382;BME280;7789;51.364;12.358;2023-05-07T22:05:42;101150.34;;;10.12;95.02
15382;BME280;7789;51.364;12.358;2023-05-07T22:10:51;101142.84;;;10.07;96.15
15382;BME280;7789;51.364;12.358;2023-05-07T22:16:13;101147.53;;;10.02;95.71
15382;BME280;7789;51.364;12.358;2023-05-07T22:21:20;101162.75;;;9.96;96.38
15382;BME280;7789;51.364;12.358;2023-05-07T22:26:28;101153.44;;;9.92;96.79
15382;BME280;7789;51.364;12.358;2023-05-07T22:31:35;101148.31;;;9.90;96.75
15382;BME280;7789;51.364;12.358;2023-05-07T22:36:41;101146.00;;;9.86;96.76
15382;BME280;7789;51.364;12.358;2023-05-07T22:41:47;101145.50;;;9.81;96.48
15382;BME280;7789;51.364;12.358;2023-05-07T22:46:53;101150.06;;;9.77;97.25
15382;BME280;7789;51.364;12.358;2023-05-07T22:52:01;101145.16;;;9.73;97.12
15382;BME280;7789;51.364;12.358;2023-05-07T22:57:05;101155.06;;;9.68;96.90
15382;BME280;7789;51.364;12.358;2023-05-07T23:02:11;101145.75;;;9.64;97.20
15382;BME280;7789;51.364;12.358;2023-05-07T23:07:19;101158.91;;;9.62;96.89
15382;BME280;7789;51.364;12.358;2023-05-07T23:12:25;101170.38;;;9.60;96.94
15382;BME280;7789;51.364;12.358;2023-05-07T23:17:31;101170.56;;;9.57;96.88
15382;BME280;7789;51.364;12.358;2023-05-07T23:22:36;101166.41;;;9.54;97.09
15382;BME280;7789;51.364;12.358;2023-05-07T23:27:41;101155.53;;;9.48;97.16
15382;BME280;7789;51.364;12.358;2023-05-07T23:33:11;101149.94;;;9.40;97.76
15382;BME280;7789;51.364;12.358;2023-05-07T23:38:18;101150.81;;;9.40;96.96
15382;BME280;7789;51.364;12.358;2023-05-07T23:43:24;101148.47;;;9.36;97.34
15382;BME280;7789;51.364;12.358;2023-05-07T23:48:33;101151.09;;;9.36;97.54
15382;BME280;7789;51.364;12.358;2023-05-07T23:53:39;101150.56;;;9.31;97.84
15382;BME280;7789;51.364;12.358;2023-05-07T23:58:51;101145.53;;;9.28;97.78
